Kedves Pilóták, Oktatók, Növendékek!

Az alábbi menüpontban szeretnénk összefoglalni néhány fontos és hasznos információt, linket, amely segíthet a repülések megtervezésében.

Ha bármilyen javaslatod van a tartalommal kapcsolatban, kérlek Ez az e-mail-cím a szpemrobotok elleni védelem alatt áll. Megtekintéséhez engedélyeznie kell a JavaScript használatát.meg nekünk.

 

Jó leszállást!

Repüléssel kapcsolatos hírek

2023. január 31.

Felhőkép 

Felhőkép

Széltérkép

Széltérkép

Győr-Pér Repülőtér

Élő webkamera kép

 Nagyobb kép

Győr-Pér Repülőtér

[Source: ADDS]
METAR
LHPR 311715Z AUTO 28013KT CAVOK 04/M02 Q1019 NOSIG =
LHPR 311715Z 3118/0103 26012KT 9999 SCT040 SCT080 TEMPO 3118/0103 28016G28KT BECMG 3119/3122 -RA -RASN BKN025 OVC060
TAF
LHPR 311715Z 3118/0103 26012KT 9999 SCT040 SCT080 TEMPO 3118/0103 28016G28KT BECMG 3119/3122 -RA -RASN BKN025 OVC060 =
SR / SS: 06:16 / 15:47 UTC (Napkelte / Napnyugta 2023-01-31)

Kapcsolat

Telephely:     9099 Pér, Repülõtér

Klubhelyiség: 9021 Gyõr, Városház tér 3.

E-mail: info@aeroclub-gyor.hu

Telefon: 06-20-777-9106

Adószám: 19113832-2-08

JSN Metro template designed by JoomlaShine.com